Weather at Ahmad Shah Baba International Airport / Kandahar Airfield

Public forecast

Using degrees Celsius for public forecast. Weather courtesy of forecast.io.

Closest aviation weather report (METAR) to Ahmad Shah Baba International Airport / Kandahar Airfield

Report is more than 6 hours old.

Closest report is Zabol Airport, 222.1 nm (411.4 km) W.

2022/11/14 15:00 (retrieved 2 years ago)

OIZB 141500Z 11006KT CAVOK 14/01 Q1020

Closest aviation forecast (TAF) to Ahmad Shah Baba International Airport / Kandahar Airfield

Forecast is more than 12 hours old.

Closest forecast is Zahedan International Airport, 283.2 nm (524.5 km) WSW.

2023/02/22 18:54 (retrieved 1 year ago)

TAF OIZH 221745Z 2218/2324 24008KT CAVOK TEMPO 2307/2315 24018G28KT